sensor_id;sensor_type;location;lat;lon;timestamp;P1;durP1;ratioP1;P2;durP2;ratioP2
43146;SDS011;28752;48.266;7.402;2023-09-08T00:01:58;12.83;;;7.57;;
43146;SDS011;28752;48.266;7.402;2023-09-08T00:04:24;9.27;;;7.37;;
43146;SDS011;28752;48.266;7.402;2023-09-08T00:06:49;9.77;;;6.93;;
43146;SDS011;28752;48.266;7.402;2023-09-08T00:09:14;12.90;;;7.57;;
43146;SDS011;28752;48.266;7.402;2023-09-08T00:11:40;7.97;;;6.70;;
43146;SDS011;28752;48.266;7.402;2023-09-08T00:14:05;10.57;;;7.30;;
43146;SDS011;28752;48.266;7.402;2023-09-08T00:16:30;9.53;;;7.00;;
43146;SDS011;28752;48.266;7.402;2023-09-08T00:18:56;10.47;;;7.60;;
43146;SDS011;28752;48.266;7.402;2023-09-08T00:21:24;10.38;;;7.07;;
43146;SDS011;28752;48.266;7.402;2023-09-08T00:26:15;10.60;;;7.13;;
43146;SDS011;28752;48.266;7.402;2023-09-08T00:28:40;8.90;;;7.70;;
43146;SDS011;28752;48.266;7.402;2023-09-08T00:31:05;9.07;;;7.23;;
43146;SDS011;28752;48.266;7.402;2023-09-08T00:33:30;10.47;;;7.37;;
43146;SDS011;28752;48.266;7.402;2023-09-08T00:35:56;9.23;;;6.90;;
43146;SDS011;28752;48.266;7.402;2023-09-08T00:38:22;8.57;;;6.97;;
43146;SDS011;28752;48.266;7.402;2023-09-08T00:40:48;8.30;;;6.60;;
43146;SDS011;28752;48.266;7.402;2023-09-08T00:43:13;8.98;;;7.20;;
43146;SDS011;28752;48.266;7.402;2023-09-08T00:45:40;10.82;;;7.65;;
43146;SDS011;28752;48.266;7.402;2023-09-08T00:48:07;8.50;;;7.05;;
43146;SDS011;28752;48.266;7.402;2023-09-08T00:50:33;8.80;;;7.00;;
43146;SDS011;28752;48.266;7.402;2023-09-08T00:53:00;9.27;;;7.07;;
43146;SDS011;28752;48.266;7.402;2023-09-08T00:55:26;8.43;;;7.32;;
43146;SDS011;28752;48.266;7.402;2023-09-08T00:57:51;9.88;;;6.82;;
43146;SDS011;28752;48.266;7.402;2023-09-08T01:00:17;9.80;;;7.63;;
43146;SDS011;28752;48.266;7.402;2023-09-08T01:02:42;8.43;;;6.93;;
43146;SDS011;28752;48.266;7.402;2023-09-08T01:05:10;8.00;;;7.20;;
43146;SDS011;28752;48.266;7.402;2023-09-08T01:07:35;10.02;;;7.40;;
43146;SDS011;28752;48.266;7.402;2023-09-08T01:10:01;11.35;;;7.25;;
43146;SDS011;28752;48.266;7.402;2023-09-08T01:12:31;10.40;;;7.43;;
43146;SDS011;28752;48.266;7.402;2023-09-08T01:14:57;8.82;;;7.05;;
43146;SDS011;28752;48.266;7.402;2023-09-08T01:17:22;9.07;;;7.67;;
43146;SDS011;28752;48.266;7.402;2023-09-08T01:19:47;9.03;;;6.97;;
43146;SDS011;28752;48.266;7.402;2023-09-08T01:22:23;8.68;;;7.20;;
43146;SDS011;28752;48.266;7.402;2023-09-08T01:27:37;9.02;;;7.03;;
43146;SDS011;28752;48.266;7.402;2023-09-08T01:30:04;8.23;;;6.85;;
43146;SDS011;28752;48.266;7.402;2023-09-08T01:32:31;8.88;;;6.95;;
43146;SDS011;28752;48.266;7.402;2023-09-08T01:34:59;7.78;;;6.78;;
43146;SDS011;28752;48.266;7.402;2023-09-08T01:37:25;8.80;;;7.07;;
43146;SDS011;28752;48.266;7.402;2023-09-08T01:39:51;8.25;;;6.80;;
43146;SDS011;28752;48.266;7.402;2023-09-08T01:42:16;8.82;;;7.22;;
43146;SDS011;28752;48.266;7.402;2023-09-08T01:44:42;9.30;;;7.43;;
43146;SDS011;28752;48.266;7.402;2023-09-08T01:47:07;8.13;;;6.70;;
43146;SDS011;28752;48.266;7.402;2023-09-08T01:49:32;8.23;;;6.77;;
43146;SDS011;28752;48.266;7.402;2023-09-08T01:51:58;9.05;;;7.72;;
43146;SDS011;28752;48.266;7.402;2023-09-08T01:54:23;10.50;;;7.40;;
43146;SDS011;28752;48.266;7.402;2023-09-08T01:56:48;9.33;;;6.83;;
43146;SDS011;28752;48.266;7.402;2023-09-08T02:01:40;8.95;;;7.07;;
43146;SDS011;28752;48.266;7.402;2023-09-08T02:04:05;7.97;;;6.90;;
43146;SDS011;28752;48.266;7.402;2023-09-08T02:06:31;8.20;;;7.10;;
43146;SDS011;28752;48.266;7.402;2023-09-08T02:08:56;9.70;;;7.00;;
43146;SDS011;28752;48.266;7.402;2023-09-08T02:11:21;8.23;;;7.00;;
43146;SDS011;28752;48.266;7.402;2023-09-08T02:13:47;8.25;;;7.13;;
43146;SDS011;28752;48.266;7.402;2023-09-08T02:16:13;9.97;;;7.90;;
43146;SDS011;28752;48.266;7.402;2023-09-08T02:18:39;9.52;;;7.20;;
43146;SDS011;28752;48.266;7.402;2023-09-08T02:21:04;9.33;;;7.63;;
43146;SDS011;28752;48.266;7.402;2023-09-08T02:23:30;10.40;;;7.93;;
43146;SDS011;28752;48.266;7.402;2023-09-08T02:25:55;9.33;;;7.73;;
43146;SDS011;28752;48.266;7.402;2023-09-08T02:28:20;9.87;;;8.77;;
43146;SDS011;28752;48.266;7.402;2023-09-08T02:30:46;10.13;;;8.90;;
43146;SDS011;28752;48.266;7.402;2023-09-08T02:33:11;13.30;;;9.27;;
43146;SDS011;28752;48.266;7.402;2023-09-08T02:35:37;11.60;;;8.60;;
43146;SDS011;28752;48.266;7.402;2023-09-08T02:38:03;9.57;;;8.10;;
43146;SDS011;28752;48.266;7.402;2023-09-08T02:40:29;11.20;;;8.27;;
43146;SDS011;28752;48.266;7.402;2023-09-08T02:42:54;13.13;;;8.73;;
43146;SDS011;28752;48.266;7.402;2023-09-08T02:45:19;10.13;;;8.27;;
43146;SDS011;28752;48.266;7.402;2023-09-08T02:47:45;11.20;;;8.50;;
43146;SDS011;28752;48.266;7.402;2023-09-08T02:50:10;8.90;;;7.43;;
43146;SDS011;28752;48.266;7.402;2023-09-08T02:52:35;9.87;;;8.03;;
43146;SDS011;28752;48.266;7.402;2023-09-08T02:55:01;10.27;;;7.97;;
43146;SDS011;28752;48.266;7.402;2023-09-08T02:57:26;10.23;;;7.60;;
43146;SDS011;28752;48.266;7.402;2023-09-08T02:59:52;9.80;;;7.78;;
43146;SDS011;28752;48.266;7.402;2023-09-08T03:02:17;8.77;;;7.63;;
43146;SDS011;28752;48.266;7.402;2023-09-08T03:04:42;12.23;;;8.30;;
43146;SDS011;28752;48.266;7.402;2023-09-08T03:07:08;9.70;;;7.83;;
43146;SDS011;28752;48.266;7.402;2023-09-08T03:09:33;10.27;;;7.47;;
43146;SDS011;28752;48.266;7.402;2023-09-08T03:11:59;10.15;;;8.02;;
43146;SDS011;28752;48.266;7.402;2023-09-08T03:14:25;10.27;;;7.67;;
43146;SDS011;28752;48.266;7.402;2023-09-08T03:16:50;9.50;;;8.00;;
43146;SDS011;28752;48.266;7.402;2023-09-08T03:19:15;9.37;;;7.37;;
43146;SDS011;28752;48.266;7.402;2023-09-08T03:21:40;11.37;;;8.47;;
43146;SDS011;28752;48.266;7.402;2023-09-08T03:24:06;8.97;;;8.07;;
43146;SDS011;28752;48.266;7.402;2023-09-08T03:26:31;8.90;;;7.87;;
43146;SDS011;28752;48.266;7.402;2023-09-08T03:28:56;8.90;;;7.17;;
43146;SDS011;28752;48.266;7.402;2023-09-08T03:31:22;11.03;;;8.47;;
43146;SDS011;28752;48.266;7.402;2023-09-08T03:33:47;10.83;;;7.97;;
43146;SDS011;28752;48.266;7.402;2023-09-08T03:36:12;9.37;;;8.33;;
43146;SDS011;28752;48.266;7.402;2023-09-08T03:38:38;10.43;;;8.43;;
43146;SDS011;28752;48.266;7.402;2023-09-08T03:41:03;10.40;;;8.25;;
43146;SDS011;28752;48.266;7.402;2023-09-08T03:43:29;11.23;;;8.20;;
43146;SDS011;28752;48.266;7.402;2023-09-08T03:45:54;9.93;;;7.97;;
43146;SDS011;28752;48.266;7.402;2023-09-08T03:48:19;10.10;;;8.77;;
43146;SDS011;28752;48.266;7.402;2023-09-08T03:50:44;11.17;;;7.90;;
43146;SDS011;28752;48.266;7.402;2023-09-08T03:53:10;9.95;;;8.40;;
43146;SDS011;28752;48.266;7.402;2023-09-08T03:55:36;9.35;;;7.57;;
43146;SDS011;28752;48.266;7.402;2023-09-08T03:58:01;10.13;;;8.07;;
43146;SDS011;28752;48.266;7.402;2023-09-08T04:00:28;9.60;;;8.05;;
43146;SDS011;28752;48.266;7.402;2023-09-08T04:02:53;10.50;;;8.00;;
43146;SDS011;28752;48.266;7.402;2023-09-08T04:05:19;10.33;;;8.40;;
43146;SDS011;28752;48.266;7.402;2023-09-08T04:07:44;10.37;;;7.60;;
43146;SDS011;28752;48.266;7.402;2023-09-08T04:10:10;9.27;;;7.80;;
43146;SDS011;28752;48.266;7.402;2023-09-08T04:12:36;9.70;;;7.83;;
43146;SDS011;28752;48.266;7.402;2023-09-08T04:15:01;11.40;;;7.67;;
43146;SDS011;28752;48.266;7.402;2023-09-08T04:17:26;10.50;;;7.90;;
43146;SDS011;28752;48.266;7.402;2023-09-08T04:19:52;11.00;;;8.40;;
43146;SDS011;28752;48.266;7.402;2023-09-08T04:22:17;11.33;;;8.87;;
43146;SDS011;28752;48.266;7.402;2023-09-08T04:24:42;10.90;;;9.03;;
43146;SDS011;28752;48.266;7.402;2023-09-08T04:27:08;14.47;;;9.73;;
43146;SDS011;28752;48.266;7.402;2023-09-08T04:29:34;10.85;;;8.80;;
43146;SDS011;28752;48.266;7.402;2023-09-08T04:31:59;11.77;;;9.53;;
43146;SDS011;28752;48.266;7.402;2023-09-08T04:34:25;13.03;;;9.70;;
43146;SDS011;28752;48.266;7.402;2023-09-08T04:36:50;10.68;;;9.57;;
43146;SDS011;28752;48.266;7.402;2023-09-08T04:39:16;13.57;;;9.10;;
43146;SDS011;28752;48.266;7.402;2023-09-08T04:41:41;11.23;;;9.10;;
43146;SDS011;28752;48.266;7.402;2023-09-08T04:44:06;10.77;;;9.17;;
43146;SDS011;28752;48.266;7.402;2023-09-08T04:46:31;10.97;;;9.10;;
43146;SDS011;28752;48.266;7.402;2023-09-08T04:48:57;10.27;;;8.80;;
43146;SDS011;28752;48.266;7.402;2023-09-08T04:51:23;11.20;;;8.93;;
43146;SDS011;28752;48.266;7.402;2023-09-08T04:53:48;10.98;;;8.98;;
43146;SDS011;28752;48.266;7.402;2023-09-08T04:56:13;11.53;;;9.40;;
43146;SDS011;28752;48.266;7.402;2023-09-08T04:58:39;10.35;;;8.95;;
43146;SDS011;28752;48.266;7.402;2023-09-08T05:01:04;11.73;;;9.17;;
43146;SDS011;28752;48.266;7.402;2023-09-08T05:03:30;10.93;;;9.00;;
43146;SDS011;28752;48.266;7.402;2023-09-08T05:05:56;10.50;;;8.60;;
43146;SDS011;28752;48.266;7.402;2023-09-08T05:08:21;12.23;;;9.80;;
43146;SDS011;28752;48.266;7.402;2023-09-08T05:10:46;11.47;;;9.17;;
43146;SDS011;28752;48.266;7.402;2023-09-08T05:13:12;10.20;;;9.10;;
43146;SDS011;28752;48.266;7.402;2023-09-08T05:15:37;10.70;;;9.37;;
43146;SDS011;28752;48.266;7.402;2023-09-08T05:18:04;11.82;;;9.77;;
43146;SDS011;28752;48.266;7.402;2023-09-08T05:20:30;12.40;;;9.27;;
43146;SDS011;28752;48.266;7.402;2023-09-08T05:22:55;13.13;;;9.60;;
43146;SDS011;28752;48.266;7.402;2023-09-08T05:25:20;10.70;;;8.83;;
43146;SDS011;28752;48.266;7.402;2023-09-08T05:27:46;11.80;;;9.80;;
43146;SDS011;28752;48.266;7.402;2023-09-08T05:30:11;13.00;;;9.43;;
43146;SDS011;28752;48.266;7.402;2023-09-08T05:32:37;10.10;;;8.95;;
43146;SDS011;28752;48.266;7.402;2023-09-08T05:35:03;11.93;;;9.13;;
43146;SDS011;28752;48.266;7.402;2023-09-08T05:37:29;10.98;;;9.68;;
43146;SDS011;28752;48.266;7.402;2023-09-08T05:39:54;14.10;;;10.10;;
43146;SDS011;28752;48.266;7.402;2023-09-08T05:42:20;11.87;;;9.60;;
43146;SDS011;28752;48.266;7.402;2023-09-08T05:44:45;12.23;;;10.20;;
43146;SDS011;28752;48.266;7.402;2023-09-08T05:47:12;13.02;;;9.68;;
43146;SDS011;28752;48.266;7.402;2023-09-08T05:49:38;13.33;;;10.37;;
43146;SDS011;28752;48.266;7.402;2023-09-08T05:52:03;12.67;;;9.90;;
43146;SDS011;28752;48.266;7.402;2023-09-08T05:54:28;12.27;;;10.10;;
43146;SDS011;28752;48.266;7.402;2023-09-08T05:56:55;11.35;;;8.90;;
43146;SDS011;28752;48.266;7.402;2023-09-08T05:59:20;13.53;;;9.80;;
43146;SDS011;28752;48.266;7.402;2023-09-08T06:01:45;10.10;;;8.63;;
43146;SDS011;28752;48.266;7.402;2023-09-08T06:04:11;12.97;;;9.57;;
43146;SDS011;28752;48.266;7.402;2023-09-08T06:06:36;12.90;;;8.97;;
43146;SDS011;28752;48.266;7.402;2023-09-08T06:09:01;11.03;;;8.80;;
43146;SDS011;28752;48.266;7.402;2023-09-08T06:11:30;11.50;;;8.85;;
43146;SDS011;28752;48.266;7.402;2023-09-08T06:13:56;10.70;;;7.93;;
43146;SDS011;28752;48.266;7.402;2023-09-08T06:16:24;12.63;;;8.88;;
43146;SDS011;28752;48.266;7.402;2023-09-08T06:18:50;10.05;;;8.40;;
43146;SDS011;28752;48.266;7.402;2023-09-08T06:21:15;12.90;;;8.52;;
43146;SDS011;28752;48.266;7.402;2023-09-08T06:23:40;9.23;;;7.63;;
43146;SDS011;28752;48.266;7.402;2023-09-08T06:26:06;12.23;;;7.83;;
43146;SDS011;28752;48.266;7.402;2023-09-08T06:28:31;9.68;;;7.45;;
43146;SDS011;28752;48.266;7.402;2023-09-08T06:30:56;10.48;;;7.10;;
43146;SDS011;28752;48.266;7.402;2023-09-08T06:33:22;10.45;;;6.80;;
43146;SDS011;28752;48.266;7.402;2023-09-08T06:38:13;8.90;;;7.03;;
43146;SDS011;28752;48.266;7.402;2023-09-08T06:40:38;9.48;;;7.28;;
43146;SDS011;28752;48.266;7.402;2023-09-08T06:43:04;8.65;;;6.82;;
43146;SDS011;28752;48.266;7.402;2023-09-08T06:52:46;8.93;;;6.95;;
43146;SDS011;28752;48.266;7.402;2023-09-08T06:55:12;8.98;;;6.78;;
43146;SDS011;28752;48.266;7.402;2023-09-08T06:57:38;8.13;;;6.38;;
43146;SDS011;28752;48.266;7.402;2023-09-08T07:00:04;8.80;;;5.82;;
43146;SDS011;28752;48.266;7.402;2023-09-08T07:02:31;11.55;;;6.70;;
43146;SDS011;28752;48.266;7.402;2023-09-08T07:04:57;8.82;;;6.50;;
43146;SDS011;28752;48.266;7.402;2023-09-08T07:07:22;8.05;;;6.57;;
43146;SDS011;28752;48.266;7.402;2023-09-08T07:09:48;8.10;;;5.85;;
43146;SDS011;28752;48.266;7.402;2023-09-08T07:12:13;8.52;;;6.72;;
43146;SDS011;28752;48.266;7.402;2023-09-08T07:14:39;9.63;;;6.55;;
43146;SDS011;28752;48.266;7.402;2023-09-08T07:17:04;6.75;;;5.90;;
43146;SDS011;28752;48.266;7.402;2023-09-08T07:19:29;7.50;;;5.95;;
43146;SDS011;28752;48.266;7.402;2023-09-08T07:21:55;8.60;;;6.10;;
43146;SDS011;28752;48.266;7.402;2023-09-08T07:24:20;6.55;;;5.15;;
43146;SDS011;28752;48.266;7.402;2023-09-08T07:26:46;7.70;;;5.97;;
43146;SDS011;28752;48.266;7.402;2023-09-08T07:29:11;6.72;;;5.93;;
43146;SDS011;28752;48.266;7.402;2023-09-08T07:31:37;7.38;;;5.65;;
43146;SDS011;28752;48.266;7.402;2023-09-08T07:34:03;9.40;;;6.15;;
43146;SDS011;28752;48.266;7.402;2023-09-08T07:36:28;8.55;;;6.75;;
43146;SDS011;28752;48.266;7.402;2023-09-08T07:38:54;7.53;;;6.40;;
43146;SDS011;28752;48.266;7.402;2023-09-08T07:41:19;8.30;;;6.45;;
43146;SDS011;28752;48.266;7.402;2023-09-08T07:48:36;8.65;;;6.25;;
43146;SDS011;28752;48.266;7.402;2023-09-08T07:51:01;8.75;;;6.72;;
43146;SDS011;28752;48.266;7.402;2023-09-08T07:55:52;9.55;;;6.97;;
43146;SDS011;28752;48.266;7.402;2023-09-08T08:00:42;8.27;;;6.67;;
43146;SDS011;28752;48.266;7.402;2023-09-08T08:05:33;10.20;;;6.97;;
43146;SDS011;28752;48.266;7.402;2023-09-08T08:12:49;9.85;;;6.50;;
43146;SDS011;28752;48.266;7.402;2023-09-08T08:17:40;11.40;;;7.07;;
43146;SDS011;28752;48.266;7.402;2023-09-08T08:22:33;9.07;;;7.00;;
43146;SDS011;28752;48.266;7.402;2023-09-08T08:27:24;10.55;;;7.10;;
43146;SDS011;28752;48.266;7.402;2023-09-08T08:32:16;8.80;;;6.63;;
43146;SDS011;28752;48.266;7.402;2023-09-08T08:39:32;8.93;;;7.87;;
43146;SDS011;28752;48.266;7.402;2023-09-08T08:44:23;9.52;;;7.28;;
43146;SDS011;28752;48.266;7.402;2023-09-08T08:49:15;10.10;;;7.13;;
43146;SDS011;28752;48.266;7.402;2023-09-08T08:51:42;9.40;;;7.30;;
43146;SDS011;28752;48.266;7.402;2023-09-08T09:08:28;10.43;;;7.03;;
43146;SDS011;28752;48.266;7.402;2023-09-08T09:10:54;8.90;;;6.97;;
43146;SDS011;28752;48.266;7.402;2023-09-08T09:15:45;10.15;;;7.80;;
43146;SDS011;28752;48.266;7.402;2023-09-08T09:18:11;8.93;;;6.93;;
43146;SDS011;28752;48.266;7.402;2023-09-08T09:23:03;10.65;;;7.60;;
43146;SDS011;28752;48.266;7.402;2023-09-08T09:27:56;10.73;;;6.70;;
43146;SDS011;28752;48.266;7.402;2023-09-08T09:30:22;10.30;;;6.93;;
43146;SDS011;28752;48.266;7.402;2023-09-08T09:32:57;7.70;;;6.88;;
43146;SDS011;28752;48.266;7.402;2023-09-08T09:35:40;8.45;;;7.05;;
43146;SDS011;28752;48.266;7.402;2023-09-08T09:38:15;8.60;;;6.78;;
43146;SDS011;28752;48.266;7.402;2023-09-08T09:40:43;7.85;;;6.30;;
43146;SDS011;28752;48.266;7.402;2023-09-08T09:43:10;8.50;;;6.45;;
43146;SDS011;28752;48.266;7.402;2023-09-08T09:45:36;9.05;;;6.40;;
43146;SDS011;28752;48.266;7.402;2023-09-08T09:48:04;9.50;;;6.70;;
43146;SDS011;28752;48.266;7.402;2023-09-08T09:50:40;9.15;;;7.30;;
43146;SDS011;28752;48.266;7.402;2023-09-08T09:53:12;10.85;;;6.82;;
43146;SDS011;28752;48.266;7.402;2023-09-08T09:55:41;8.68;;;6.35;;
43146;SDS011;28752;48.266;7.402;2023-09-08T09:58:08;13.23;;;7.15;;
43146;SDS011;28752;48.266;7.402;2023-09-08T10:00:35;9.60;;;6.95;;
43146;SDS011;28752;48.266;7.402;2023-09-08T10:03:02;9.93;;;6.85;;
43146;SDS011;28752;48.266;7.402;2023-09-08T10:05:29;9.43;;;6.30;;
43146;SDS011;28752;48.266;7.402;2023-09-08T10:12:46;8.10;;;6.72;;
43146;SDS011;28752;48.266;7.402;2023-09-08T10:15:19;8.85;;;6.85;;
43146;SDS011;28752;48.266;7.402;2023-09-08T10:17:46;8.23;;;6.25;;
43146;SDS011;28752;48.266;7.402;2023-09-08T10:20:17;8.95;;;6.60;;
43146;SDS011;28752;48.266;7.402;2023-09-08T10:22:46;8.15;;;6.60;;
43146;SDS011;28752;48.266;7.402;2023-09-08T10:25:14;9.45;;;6.78;;
43146;SDS011;28752;48.266;7.402;2023-09-08T10:27:44;7.80;;;7.00;;
43146;SDS011;28752;48.266;7.402;2023-09-08T10:32:36;9.02;;;7.32;;
43146;SDS011;28752;48.266;7.402;2023-09-08T10:35:02;8.65;;;6.78;;
43146;SDS011;28752;48.266;7.402;2023-09-08T10:37:29;7.75;;;6.40;;
43146;SDS011;28752;48.266;7.402;2023-09-08T10:39:54;8.23;;;6.32;;
43146;SDS011;28752;48.266;7.402;2023-09-08T10:42:24;9.52;;;6.47;;
43146;SDS011;28752;48.266;7.402;2023-09-08T10:44:56;10.48;;;6.80;;
43146;SDS011;28752;48.266;7.402;2023-09-08T10:47:26;8.05;;;6.57;;
43146;SDS011;28752;48.266;7.402;2023-09-08T10:49:56;9.68;;;6.78;;
43146;SDS011;28752;48.266;7.402;2023-09-08T10:52:23;9.10;;;6.45;;
43146;SDS011;28752;48.266;7.402;2023-09-08T10:54:50;8.73;;;6.60;;
43146;SDS011;28752;48.266;7.402;2023-09-08T10:57:20;7.43;;;6.55;;
43146;SDS011;28752;48.266;7.402;2023-09-08T10:59:57;7.90;;;6.35;;
43146;SDS011;28752;48.266;7.402;2023-09-08T11:02:37;7.32;;;6.50;;
43146;SDS011;28752;48.266;7.402;2023-09-08T11:05:21;7.40;;;5.90;;
43146;SDS011;28752;48.266;7.402;2023-09-08T11:07:47;9.73;;;6.78;;
43146;SDS011;28752;48.266;7.402;2023-09-08T11:10:17;8.88;;;5.80;;
43146;SDS011;28752;48.266;7.402;2023-09-08T11:12:43;8.00;;;6.10;;
43146;SDS011;28752;48.266;7.402;2023-09-08T11:15:08;9.75;;;6.53;;
43146;SDS011;28752;48.266;7.402;2023-09-08T11:17:35;8.15;;;6.43;;
43146;SDS011;28752;48.266;7.402;2023-09-08T11:20:04;8.75;;;6.78;;
43146;SDS011;28752;48.266;7.402;2023-09-08T11:22:33;9.38;;;6.57;;
43146;SDS011;28752;48.266;7.402;2023-09-08T11:24:59;9.50;;;6.97;;
43146;SDS011;28752;48.266;7.402;2023-09-08T11:27:25;7.43;;;6.50;;
43146;SDS011;28752;48.266;7.402;2023-09-08T11:29:52;7.47;;;6.25;;
43146;SDS011;28752;48.266;7.402;2023-09-08T11:32:18;7.40;;;6.03;;
43146;SDS011;28752;48.266;7.402;2023-09-08T11:34:43;7.57;;;6.13;;
43146;SDS011;28752;48.266;7.402;2023-09-08T11:37:09;7.47;;;5.60;;
43146;SDS011;28752;48.266;7.402;2023-09-08T11:39:38;7.63;;;5.80;;
43146;SDS011;28752;48.266;7.402;2023-09-08T11:42:05;7.43;;;6.10;;
43146;SDS011;28752;48.266;7.402;2023-09-08T11:44:32;8.05;;;6.05;;
43146;SDS011;28752;48.266;7.402;2023-09-08T11:46:59;7.70;;;6.00;;
43146;SDS011;28752;48.266;7.402;2023-09-08T11:49:26;7.85;;;6.22;;
43146;SDS011;28752;48.266;7.402;2023-09-08T11:51:51;8.88;;;5.97;;
43146;SDS011;28752;48.266;7.402;2023-09-08T11:54:17;9.20;;;6.10;;
43146;SDS011;28752;48.266;7.402;2023-09-08T11:56:42;6.68;;;5.85;;
43146;SDS011;28752;48.266;7.402;2023-09-08T11:59:08;6.72;;;5.93;;
43146;SDS011;28752;48.266;7.402;2023-09-08T12:01:34;7.57;;;5.80;;
43146;SDS011;28752;48.266;7.402;2023-09-08T12:04:00;8.15;;;5.90;;
43146;SDS011;28752;48.266;7.402;2023-09-08T12:06:26;8.68;;;6.03;;
43146;SDS011;28752;48.266;7.402;2023-09-08T12:08:52;9.32;;;5.60;;
43146;SDS011;28752;48.266;7.402;2023-09-08T12:11:21;7.15;;;5.43;;
43146;SDS011;28752;48.266;7.402;2023-09-08T12:13:46;9.90;;;5.68;;
43146;SDS011;28752;48.266;7.402;2023-09-08T12:16:18;7.70;;;5.75;;
43146;SDS011;28752;48.266;7.402;2023-09-08T12:18:44;9.10;;;5.75;;
43146;SDS011;28752;48.266;7.402;2023-09-08T12:21:10;8.70;;;5.50;;
43146;SDS011;28752;48.266;7.402;2023-09-08T12:23:46;10.10;;;5.72;;
43146;SDS011;28752;48.266;7.402;2023-09-08T12:26:14;8.70;;;6.03;;
43146;SDS011;28752;48.266;7.402;2023-09-08T12:28:39;6.60;;;5.22;;
43146;SDS011;28752;48.266;7.402;2023-09-08T12:31:05;8.23;;;5.70;;
43146;SDS011;28752;48.266;7.402;2023-09-08T12:33:30;10.32;;;5.63;;
43146;SDS011;28752;48.266;7.402;2023-09-08T12:35:55;6.65;;;5.50;;
43146;SDS011;28752;48.266;7.402;2023-09-08T12:38:21;7.78;;;5.53;;
43146;SDS011;28752;48.266;7.402;2023-09-08T12:40:47;10.40;;;6.28;;
43146;SDS011;28752;48.266;7.402;2023-09-08T12:43:13;7.65;;;5.75;;
43146;SDS011;28752;48.266;7.402;2023-09-08T12:45:38;8.50;;;5.55;;
43146;SDS011;28752;48.266;7.402;2023-09-08T12:48:03;8.32;;;5.90;;
43146;SDS011;28752;48.266;7.402;2023-09-08T12:50:31;8.65;;;6.00;;
43146;SDS011;28752;48.266;7.402;2023-09-08T12:52:57;8.60;;;5.43;;
43146;SDS011;28752;48.266;7.402;2023-09-08T12:55:23;10.10;;;6.10;;
43146;SDS011;28752;48.266;7.402;2023-09-08T12:57:49;7.85;;;6.03;;
43146;SDS011;28752;48.266;7.402;2023-09-08T13:00:19;7.82;;;5.97;;
43146;SDS011;28752;48.266;7.402;2023-09-08T13:02:44;8.48;;;5.68;;
43146;SDS011;28752;48.266;7.402;2023-09-08T13:05:10;9.43;;;5.82;;
43146;SDS011;28752;48.266;7.402;2023-09-08T13:07:35;7.90;;;5.72;;
43146;SDS011;28752;48.266;7.402;2023-09-08T13:10:00;8.45;;;5.80;;
43146;SDS011;28752;48.266;7.402;2023-09-08T13:12:26;7.85;;;5.65;;
43146;SDS011;28752;48.266;7.402;2023-09-08T13:14:51;9.48;;;5.60;;
43146;SDS011;28752;48.266;7.402;2023-09-08T13:17:17;7.15;;;5.63;;
43146;SDS011;28752;48.266;7.402;2023-09-08T13:19:43;9.80;;;5.65;;
43146;SDS011;28752;48.266;7.402;2023-09-08T13:22:09;7.18;;;5.45;;
43146;SDS011;28752;48.266;7.402;2023-09-08T13:24:35;10.00;;;5.80;;
43146;SDS011;28752;48.266;7.402;2023-09-08T13:27:01;7.28;;;5.70;;
43146;SDS011;28752;48.266;7.402;2023-09-08T13:29:27;8.50;;;5.55;;
43146;SDS011;28752;48.266;7.402;2023-09-08T13:31:52;7.82;;;5.60;;
43146;SDS011;28752;48.266;7.402;2023-09-08T13:34:18;8.73;;;6.03;;
43146;SDS011;28752;48.266;7.402;2023-09-08T13:36:43;6.28;;;5.38;;
43146;SDS011;28752;48.266;7.402;2023-09-08T13:39:08;9.00;;;5.03;;
43146;SDS011;28752;48.266;7.402;2023-09-08T13:44:29;7.43;;;5.20;;
43146;SDS011;28752;48.266;7.402;2023-09-08T13:46:54;7.38;;;5.43;;
43146;SDS011;28752;48.266;7.402;2023-09-08T13:49:20;7.63;;;5.40;;
43146;SDS011;28752;48.266;7.402;2023-09-08T13:51:45;7.25;;;5.30;;
43146;SDS011;28752;48.266;7.402;2023-09-08T13:54:11;10.30;;;5.68;;
43146;SDS011;28752;48.266;7.402;2023-09-08T13:56:38;8.10;;;5.57;;
43146;SDS011;28752;48.266;7.402;2023-09-08T13:59:05;9.57;;;5.65;;
43146;SDS011;28752;48.266;7.402;2023-09-08T14:01:30;8.20;;;5.65;;
43146;SDS011;28752;48.266;7.402;2023-09-08T14:03:56;8.77;;;5.38;;
43146;SDS011;28752;48.266;7.402;2023-09-08T14:06:22;8.75;;;5.50;;
43146;SDS011;28752;48.266;7.402;2023-09-08T14:08:51;8.02;;;5.50;;
43146;SDS011;28752;48.266;7.402;2023-09-08T14:11:17;8.20;;;5.35;;
43146;SDS011;28752;48.266;7.402;2023-09-08T14:13:42;8.07;;;5.63;;
43146;SDS011;28752;48.266;7.402;2023-09-08T14:16:08;7.45;;;5.40;;
43146;SDS011;28752;48.266;7.402;2023-09-08T14:18:36;7.20;;;5.47;;
43146;SDS011;28752;48.266;7.402;2023-09-08T14:21:01;8.70;;;5.47;;
43146;SDS011;28752;48.266;7.402;2023-09-08T14:23:27;8.82;;;5.32;;
43146;SDS011;28752;48.266;7.402;2023-09-08T14:25:54;7.72;;;5.00;;
43146;SDS011;28752;48.266;7.402;2023-09-08T14:28:19;8.70;;;5.40;;
43146;SDS011;28752;48.266;7.402;2023-09-08T14:30:44;6.90;;;5.18;;
43146;SDS011;28752;48.266;7.402;2023-09-08T14:33:10;7.88;;;5.45;;
43146;SDS011;28752;48.266;7.402;2023-09-08T14:35:35;6.93;;;5.53;;
43146;SDS011;28752;48.266;7.402;2023-09-08T14:38:01;6.97;;;5.82;;
43146;SDS011;28752;48.266;7.402;2023-09-08T14:40:26;7.85;;;5.35;;
43146;SDS011;28752;48.266;7.402;2023-09-08T14:56:49;8.93;;;5.65;;
43146;SDS011;28752;48.266;7.402;2023-09-08T15:10:42;7.93;;;5.80;;
43146;SDS011;28752;48.266;7.402;2023-09-08T15:13:08;8.65;;;6.03;;
43146;SDS011;28752;48.266;7.402;2023-09-08T15:15:33;6.03;;;5.32;;
43146;SDS011;28752;48.266;7.402;2023-09-08T15:17:58;9.90;;;6.20;;
43146;SDS011;28752;48.266;7.402;2023-09-08T15:20:24;8.18;;;5.63;;
43146;SDS011;28752;48.266;7.402;2023-09-08T15:22:49;9.95;;;5.60;;
43146;SDS011;28752;48.266;7.402;2023-09-08T15:25:15;9.05;;;5.68;;
43146;SDS011;28752;48.266;7.402;2023-09-08T15:27:41;9.93;;;6.07;;
43146;SDS011;28752;48.266;7.402;2023-09-08T15:30:07;7.78;;;5.53;;
43146;SDS011;28752;48.266;7.402;2023-09-08T15:32:34;7.78;;;5.53;;
43146;SDS011;28752;48.266;7.402;2023-09-08T15:34:59;8.95;;;5.90;;
43146;SDS011;28752;48.266;7.402;2023-09-08T15:37:24;9.73;;;5.68;;
43146;SDS011;28752;48.266;7.402;2023-09-08T15:39:50;10.20;;;5.72;;
43146;SDS011;28752;48.266;7.402;2023-09-08T15:42:15;8.35;;;5.45;;
43146;SDS011;28752;48.266;7.402;2023-09-08T15:44:40;9.80;;;5.32;;
43146;SDS011;28752;48.266;7.402;2023-09-08T15:47:06;8.65;;;5.53;;
43146;SDS011;28752;48.266;7.402;2023-09-08T15:49:31;9.38;;;5.28;;
43146;SDS011;28752;48.266;7.402;2023-09-08T15:51:56;7.22;;;5.68;;
43146;SDS011;28752;48.266;7.402;2023-09-08T15:54:22;7.13;;;5.50;;
43146;SDS011;28752;48.266;7.402;2023-09-08T15:56:47;8.10;;;5.50;;
43146;SDS011;28752;48.266;7.402;2023-09-08T15:59:16;8.70;;;5.60;;
43146;SDS011;28752;48.266;7.402;2023-09-08T16:01:42;10.43;;;6.00;;
43146;SDS011;28752;48.266;7.402;2023-09-08T16:04:07;8.05;;;5.38;;
43146;SDS011;28752;48.266;7.402;2023-09-08T16:06:35;9.85;;;5.47;;
43146;SDS011;28752;48.266;7.402;2023-09-08T16:09:01;6.63;;;5.40;;
43146;SDS011;28752;48.266;7.402;2023-09-08T16:11:26;8.90;;;5.70;;
43146;SDS011;28752;48.266;7.402;2023-09-08T16:13:51;7.88;;;5.35;;
43146;SDS011;28752;48.266;7.402;2023-09-08T16:16:17;9.50;;;5.47;;
43146;SDS011;28752;48.266;7.402;2023-09-08T16:18:42;8.73;;;5.45;;
43146;SDS011;28752;48.266;7.402;2023-09-08T16:21:08;8.13;;;6.03;;
43146;SDS011;28752;48.266;7.402;2023-09-08T16:23:33;7.80;;;5.45;;
43146;SDS011;28752;48.266;7.402;2023-09-08T16:25:58;7.88;;;5.80;;
43146;SDS011;28752;48.266;7.402;2023-09-08T16:28:24;8.73;;;5.80;;